Terminal Aerodrome Forecast
Issued by NWS

Home | Current Version | Previous Version | Text Only | Print | Product List | Glossary On
Versions: 1 2 3 4 5 6 7 8 9 10 11 12 13 14 15 16 17 18 19 20 21 22 23 24 25
818
FTUS41 KGYX 271126 AAA
TAFLEB
TAF AMD
KLEB 271126Z 2711/2812 00000KT P6SM FEW001
      TEMPO 2712/2713 P6SM SCT001
     FM271300 28005KT P6SM FEW050
     FM280600 00000KT 4SM BR SCT250=

USA.gov is the U.S. government's official web portal to all federal, state and local government web resources and services.